Time;durP1;ratioP1;P1;durP2;ratioP2;P2;SDS_P1;SDS_P2;PMS_P1;PMS_P2;Temp;Humidity;BMP_temperature;BMP_pressure;BME280_temperature;BME280_humidity;BME280_pressure;Samples;Min_cycle;Max_cycle;Signal;HPM_P1;HPM_P2
2023/09/20 00:01:22;;;;;;;1.30;0.90;;;24.20;44.70;;;;;;4989923;28;20480;-67
2023/09/20 00:03:48;;;;;;;1.10;1.00;;;24.20;44.70;;;;;;4989718;28;20465;-67
2023/09/20 00:06:17;;;;;;;1.63;1.53;;;24.10;44.70;;;;;;4986984;28;20491;-64
2023/09/20 00:08:43;;;;;;;1.10;1.00;;;24.20;45.50;;;;;;4989815;28;20246;-67
2023/09/20 00:11:15;;;;;;;1.47;1.10;;;24.20;44.70;;;;;;4989308;28;20466;-65
2023/09/20 00:13:43;;;;;;;1.20;1.00;;;24.20;44.70;;;;;;4990023;28;20216;-66
2023/09/20 00:16:09;;;;;;;1.20;1.10;;;24.10;44.70;;;;;;4988374;28;20453;-64
2023/09/20 00:18:36;;;;;;;1.00;0.90;;;24.20;44.70;;;;;;4988709;28;20488;-66
2023/09/20 00:21:01;;;;;;;1.20;1.10;;;24.10;44.70;;;;;;4987640;28;20471;-67
2023/09/20 00:23:30;;;;;;;1.13;0.93;;;24.20;44.80;;;;;;4984352;28;20477;-64
2023/09/20 00:25:56;;;;;;;1.10;1.00;;;24.20;44.70;;;;;;4988289;28;20234;-69
2023/09/20 00:28:22;;;;;;;1.00;0.90;;;24.10;44.70;;;;;;4990654;28;20461;-64
2023/09/20 00:30:47;;;;;;;1.00;0.90;;;24.20;44.80;;;;;;4988242;28;20242;-64
2023/09/20 00:33:17;;;;;;;0.90;0.90;;;24.20;44.80;;;;;;4990653;28;20223;-64
2023/09/20 00:35:42;;;;;;;1.13;1.00;;;24.20;44.80;;;;;;4987208;28;20232;-65
2023/09/20 00:38:08;;;;;;;1.67;1.20;;;24.20;44.80;;;;;;4987163;28;20469;-67
2023/09/20 00:40:35;;;;;;;1.20;1.10;;;24.10;44.70;;;;;;4987651;28;20340;-66
2023/09/20 00:43:04;;;;;;;1.23;1.13;;;24.10;44.80;;;;;;4988692;28;21264;-69
2023/09/20 00:45:30;;;;;;;1.20;1.10;;;24.10;44.70;;;;;;4989617;28;21161;-68
2023/09/20 00:47:58;;;;;;;0.90;0.90;;;24.10;44.70;;;;;;4990060;28;20469;-68
2023/09/20 00:50:28;;;;;;;1.13;1.03;;;24.20;44.80;;;;;;4987133;28;20315;-64
2023/09/20 00:52:54;;;;;;;1.27;1.17;;;24.10;44.70;;;;;;4988865;28;20468;-66
2023/09/20 00:55:24;;;;;;;1.10;1.00;;;24.20;44.90;;;;;;4990399;28;21371;-67
2023/09/20 00:57:52;;;;;;;1.13;1.03;;;24.20;44.90;;;;;;4981073;28;21067;-65
2023/09/20 01:00:21;;;;;;;1.33;1.13;;;24.10;44.70;;;;;;4985267;28;20476;-65
2023/09/20 01:02:57;;;;;;;1.43;1.10;;;24.10;44.80;;;;;;4991450;28;20444;-64
2023/09/20 01:05:25;;;;;;;1.50;1.40;;;24.10;44.70;;;;;;4989796;28;20476;-66
2023/09/20 01:07:56;;;;;;;1.20;1.10;;;24.10;44.80;;;;;;4989916;28;20465;-68
2023/09/20 01:10:26;;;;;;;1.33;1.07;;;24.10;44.80;;;;;;4988184;28;20514;-65
2023/09/20 01:12:57;;;;;;;1.40;1.30;;;24.20;44.80;;;;;;4988316;28;20490;-68
2023/09/20 01:15:23;;;;;;;2.27;2.07;;;24.10;44.80;;;;;;4989133;28;20487;-65
2023/09/20 01:17:53;;;;;;;1.10;1.00;;;24.10;44.90;;;;;;4987312;28;21005;-64
2023/09/20 01:20:20;;;;;;;1.20;1.10;;;24.10;45.00;;;;;;4984934;28;20489;-65
2023/09/20 01:22:47;;;;;;;1.20;1.10;;;24.10;44.90;;;;;;4985706;28;20474;-66
2023/09/20 01:25:21;;;;;;;1.23;1.07;;;24.10;44.90;;;;;;4986810;28;20452;-66
2023/09/20 01:27:47;;;;;;;1.20;1.10;;;24.10;44.90;;;;;;4987308;28;20510;-64
2023/09/20 01:30:13;;;;;;;1.37;1.10;;;24.10;44.90;;;;;;4988173;28;20496;-66
2023/09/20 01:32:38;;;;;;;0.90;0.90;;;24.10;45.00;;;;;;4987265;28;20469;-64
2023/09/20 01:35:04;;;;;;;1.10;1.00;;;24.10;45.00;;;;;;4983216;28;20577;-66
2023/09/20 01:37:31;;;;;;;1.10;0.97;;;24.10;45.00;;;;;;4986933;28;20255;-64
2023/09/20 01:39:57;;;;;;;1.23;1.13;;;24.10;45.00;;;;;;4985659;28;20804;-68
2023/09/20 01:42:23;;;;;;;1.20;1.10;;;24.10;45.00;;;;;;4986116;28;20462;-67
2023/09/20 01:44:49;;;;;;;1.20;1.10;;;24.10;45.00;;;;;;4989425;28;20500;-66
2023/09/20 01:47:15;;;;;;;1.13;1.03;;;24.10;45.00;;;;;;4985536;28;20738;-65
2023/09/20 01:49:42;;;;;;;1.00;0.90;;;24.10;45.00;;;;;;4983565;28;20562;-68
2023/09/20 01:52:08;;;;;;;1.30;1.20;;;24.10;45.00;;;;;;4986291;28;20457;-65
2023/09/20 01:54:34;;;;;;;1.20;1.10;;;24.10;45.00;;;;;;4984063;28;20492;-66
2023/09/20 01:57:00;;;;;;;1.10;1.00;;;24.10;45.00;;;;;;4986839;28;20580;-64
2023/09/20 01:59:25;;;;;;;1.20;1.10;;;24.10;45.00;;;;;;4988279;28;20703;-68
2023/09/20 02:01:51;;;;;;;1.20;1.00;;;24.10;45.10;;;;;;4988198;28;20298;-65
2023/09/20 02:04:18;;;;;;;1.20;1.10;;;24.10;45.10;;;;;;4986955;28;20223;-64
2023/09/20 02:06:46;;;;;;;1.20;1.10;;;24.10;45.10;;;;;;4986431;28;20255;-66
2023/09/20 02:09:13;;;;;;;1.10;1.00;;;24.10;45.10;;;;;;4986836;28;20476;-64
2023/09/20 02:11:38;;;;;;;1.23;1.03;;;24.10;45.10;;;;;;4985092;28;20500;-65
2023/09/20 02:14:04;;;;;;;1.37;1.10;;;24.10;45.10;;;;;;4988684;28;20614;-67
2023/09/20 02:16:32;;;;;;;1.77;0.90;;;24.10;45.10;;;;;;4988001;28;20363;-63
2023/09/20 02:18:58;;;;;;;1.13;1.03;;;24.10;45.10;;;;;;4986884;28;20250;-64
2023/09/20 02:21:23;;;;;;;4.33;1.50;;;24.10;45.10;;;;;;4985616;28;20473;-65
2023/09/20 02:23:56;;;;;;;1.20;1.10;;;24.10;45.10;;;;;;4989600;28;21099;-68
2023/09/20 02:26:21;;;;;;;1.57;1.30;;;24.10;45.10;;;;;;4984351;28;20370;-66
2023/09/20 02:28:47;;;;;;;1.23;1.13;;;24.10;45.20;;;;;;4985908;28;21132;-67
2023/09/20 02:31:13;;;;;;;1.50;1.40;;;24.10;45.20;;;;;;4987307;28;20633;-66
2023/09/20 02:33:39;;;;;;;1.33;1.10;;;24.10;45.20;;;;;;4992522;28;20227;-65
2023/09/20 02:36:05;;;;;;;1.30;1.20;;;24.10;45.20;;;;;;4987855;28;20460;-66
2023/09/20 02:38:30;;;;;;;1.83;1.53;;;24.10;45.20;;;;;;4986938;28;20237;-64
2023/09/20 02:40:57;;;;;;;1.03;0.93;;;24.10;45.20;;;;;;4985479;28;20234;-65
2023/09/20 02:43:22;;;;;;;1.20;1.10;;;24.10;45.20;;;;;;4986456;28;20698;-63
2023/09/20 02:45:49;;;;;;;1.10;1.00;;;24.10;45.20;;;;;;4983929;28;21107;-69
2023/09/20 02:48:15;;;;;;;5.57;1.97;;;24.10;45.20;;;;;;4988020;28;20215;-68
2023/09/20 02:50:44;;;;;;;1.23;1.13;;;24.10;45.20;;;;;;4987541;28;20468;-64
2023/09/20 02:53:09;;;;;;;1.50;1.40;;;24.10;45.20;;;;;;4987482;28;20242;-69
2023/09/20 02:55:35;;;;;;;1.13;1.10;;;24.00;45.10;;;;;;4983618;28;20952;-67
2023/09/20 02:58:01;;;;;;;1.10;1.00;;;24.10;45.20;;;;;;4987491;28;20237;-66
2023/09/20 03:00:28;;;;;;;1.30;1.10;;;24.10;45.20;;;;;;4986561;28;20236;-65
2023/09/20 03:02:55;;;;;;;1.27;1.17;;;24.10;45.20;;;;;;4985782;28;20228;-64
2023/09/20 03:05:27;;;;;;;1.37;1.27;;;24.00;45.10;;;;;;4988318;28;20996;-67
2023/09/20 03:07:53;;;;;;;2.10;1.23;;;24.10;45.30;;;;;;4988497;28;20470;-66
2023/09/20 03:10:21;;;;;;;1.10;1.00;;;24.10;45.20;;;;;;4990401;28;20468;-65
2023/09/20 03:12:51;;;;;;;1.20;1.10;;;24.10;45.30;;;;;;4988024;28;20599;-65
2023/09/20 03:15:21;;;;;;;1.40;1.30;;;24.10;45.30;;;;;;4989089;28;20475;-69
2023/09/20 03:17:48;;;;;;;1.30;1.20;;;24.10;45.30;;;;;;4992910;28;20996;-65
2023/09/20 03:20:23;;;;;;;1.20;1.10;;;24.10;45.30;;;;;;4989986;28;20532;-69
2023/09/20 03:22:51;;;;;;;1.47;1.10;;;24.10;45.30;;;;;;4990527;28;21004;-63
2023/09/20 03:25:19;;;;;;;1.20;1.10;;;24.10;45.30;;;;;;4983319;28;20457;-67
2023/09/20 03:27:45;;;;;;;1.23;1.13;;;24.10;45.30;;;;;;4975355;28;21030;-64
2023/09/20 03:30:13;;;;;;;1.30;1.20;;;24.10;45.30;;;;;;4989006;28;20465;-66
2023/09/20 03:32:42;;;;;;;1.50;1.40;;;24.00;45.20;;;;;;4993606;28;20464;-66
2023/09/20 03:35:12;;;;;;;1.23;1.13;;;24.10;45.30;;;;;;4987756;28;20472;-65
2023/09/20 03:37:39;;;;;;;1.40;1.30;;;24.10;45.30;;;;;;4992172;28;20568;-66
2023/09/20 03:40:16;;;;;;;1.33;1.07;;;24.10;45.30;;;;;;4980744;28;20508;-65
2023/09/20 03:42:42;;;;;;;1.20;1.10;;;24.00;45.20;;;;;;4989236;28;20836;-69
2023/09/20 03:45:13;;;;;;;1.20;1.10;;;24.10;45.30;;;;;;4989775;28;20460;-64
2023/09/20 03:47:40;;;;;;;0.90;0.90;;;24.10;45.30;;;;;;4991786;28;20450;-67
2023/09/20 03:50:09;;;;;;;1.20;1.10;;;24.10;45.40;;;;;;4990439;28;20563;-64
2023/09/20 03:52:38;;;;;;;1.37;1.10;;;24.10;45.30;;;;;;4990739;28;20472;-65
2023/09/20 03:55:05;;;;;;;1.10;1.00;;;24.00;45.30;;;;;;4987842;28;20475;-64
2023/09/20 03:57:31;;;;;;;1.13;1.03;;;24.10;45.30;;;;;;4991841;28;20449;-68
2023/09/20 03:59:59;;;;;;;1.10;1.00;;;24.10;45.50;;;;;;4990594;28;20522;-66
2023/09/20 04:02:26;;;;;;;1.30;1.07;;;24.00;45.20;;;;;;4984824;28;22034;-68
2023/09/20 04:04:55;;;;;;;1.10;1.00;;;24.00;45.20;;;;;;4987709;28;20956;-68
2023/09/20 04:07:26;;;;;;;1.20;1.10;;;24.00;45.20;;;;;;4990522;28;20568;-68
2023/09/20 04:09:52;;;;;;;1.20;1.10;;;24.00;45.20;;;;;;4988254;28;20476;-72
2023/09/20 04:12:17;;;;;;;1.20;1.10;;;24.10;45.30;;;;;;4991096;28;20476;-65
2023/09/20 04:14:43;;;;;;;1.10;1.00;;;24.10;45.30;;;;;;4989470;28;20223;-66
2023/09/20 04:17:08;;;;;;;1.40;1.30;;;24.10;45.20;;;;;;4986743;28;20243;-64
2023/09/20 04:19:34;;;;;;;1.20;1.10;;;24.10;45.10;;;;;;4988357;28;20259;-65
2023/09/20 04:22:04;;;;;;;1.30;1.20;;;24.10;45.10;;;;;;4986744;28;20227;-68
2023/09/20 04:24:30;;;;;;;1.57;1.20;;;24.10;45.00;;;;;;4990729;28;20239;-70
2023/09/20 04:26:56;;;;;;;1.00;1.00;;;24.10;45.00;;;;;;4985721;28;20539;-66
2023/09/20 04:29:22;;;;;;;2.13;1.00;;;24.10;44.90;;;;;;4983972;28;20468;-72
2023/09/20 04:31:49;;;;;;;1.20;1.03;;;24.10;44.90;;;;;;4979529;28;20227;-64
2023/09/20 04:34:15;;;;;;;3.20;1.30;;;24.10;44.90;;;;;;4987860;28;20679;-68
2023/09/20 04:36:44;;;;;;;1.30;1.10;;;24.10;44.90;;;;;;4986591;28;20461;-66
2023/09/20 04:39:11;;;;;;;1.60;1.10;;;24.10;44.90;;;;;;4989806;28;20259;-65
2023/09/20 04:41:37;;;;;;;1.77;1.10;;;24.10;44.90;;;;;;4985278;28;21056;-65
2023/09/20 04:44:04;;;;;;;1.23;1.13;;;24.10;44.90;;;;;;4987594;28;20453;-66
2023/09/20 04:46:30;;;;;;;1.30;1.20;;;24.10;44.90;;;;;;4982993;28;20474;-65
2023/09/20 04:48:55;;;;;;;1.67;1.50;;;24.10;44.90;;;;;;4984769;28;20496;-63
2023/09/20 04:51:21;;;;;;;1.73;1.10;;;24.10;44.90;;;;;;4982476;28;20331;-66
2023/09/20 04:53:47;;;;;;;1.30;1.20;;;24.10;44.80;;;;;;4982758;28;20253;-65
2023/09/20 04:56:12;;;;;;;1.10;1.00;;;24.10;44.90;;;;;;4993030;28;20227;-66
2023/09/20 04:58:38;;;;;;;1.83;1.10;;;24.10;44.80;;;;;;4986415;28;20861;-68
2023/09/20 05:01:09;;;;;;;1.40;1.17;;;24.10;44.80;;;;;;4983870;28;20239;-65
2023/09/20 05:03:35;;;;;;;1.47;1.37;;;24.10;44.90;;;;;;4984083;28;20548;-71
2023/09/20 05:06:00;;;;;;;1.30;1.20;;;24.20;44.90;;;;;;4984331;28;20528;-67
2023/09/20 05:08:26;;;;;;;1.43;1.20;;;24.10;44.80;;;;;;4983632;28;20238;-67
2023/09/20 05:10:51;;;;;;;2.87;1.30;;;24.20;44.80;;;;;;4974264;28;20348;-69
2023/09/20 05:13:17;;;;;;;1.10;1.00;;;24.10;44.80;;;;;;4975862;28;20215;-68
2023/09/20 05:15:42;;;;;;;1.77;1.63;;;24.10;44.80;;;;;;4978938;28;20223;-64
2023/09/20 05:18:09;;;;;;;1.60;1.40;;;24.20;44.70;;;;;;4967241;28;20605;-65
2023/09/20 05:20:35;;;;;;;1.50;1.40;;;24.20;44.80;;;;;;4964194;28;20232;-66
2023/09/20 05:23:04;;;;;;;3.97;1.40;;;24.10;44.70;;;;;;4972811;28;20464;-66
2023/09/20 05:25:30;;;;;;;1.30;1.20;;;24.20;44.70;;;;;;4978403;28;20468;-66
2023/09/20 05:27:56;;;;;;;2.53;1.17;;;24.20;44.70;;;;;;4986806;28;20551;-66
2023/09/20 05:30:22;;;;;;;1.20;1.10;;;24.20;44.70;;;;;;4984393;28;20479;-64
2023/09/20 05:32:51;;;;;;;1.90;1.20;;;24.10;44.60;;;;;;4980262;28;20878;-65
2023/09/20 05:35:17;;;;;;;2.40;1.30;;;24.20;44.70;;;;;;4982063;28;20734;-62
2023/09/20 05:37:43;;;;;;;2.30;1.43;;;24.10;44.60;;;;;;4982242;28;20590;-62
2023/09/20 05:40:18;;;;;;;1.70;1.60;;;24.10;44.60;;;;;;4987338;28;20468;-65
2023/09/20 05:42:50;;;;;;;1.90;1.40;;;24.10;44.60;;;;;;4986099;28;20456;-64
2023/09/20 05:45:15;;;;;;;1.50;1.40;;;24.20;44.70;;;;;;4984657;28;20499;-65
2023/09/20 05:47:42;;;;;;;1.70;1.30;;;24.20;44.60;;;;;;4986009;28;20591;-62
2023/09/20 05:50:13;;;;;;;2.43;1.20;;;24.10;44.50;;;;;;4978692;28;20343;-63
2023/09/20 05:52:43;;;;;;;1.30;1.20;;;24.10;44.50;;;;;;4988050;28;20556;-63
2023/09/20 05:55:13;;;;;;;1.77;1.67;;;24.10;44.50;;;;;;4981400;28;21037;-64
2023/09/20 05:57:42;;;;;;;1.40;1.30;;;24.10;44.50;;;;;;4977372;28;21149;-62
2023/09/20 06:00:18;;;;;;;1.43;1.30;;;24.20;44.50;;;;;;4980343;28;20540;-68
2023/09/20 06:02:44;;;;;;;1.40;1.20;;;24.10;44.50;;;;;;4981029;28;20491;-67
2023/09/20 06:05:18;;;;;;;1.47;1.33;;;24.20;44.50;;;;;;4985533;28;20476;-66
2023/09/20 06:07:44;;;;;;;1.50;1.40;;;24.10;44.50;;;;;;4986031;28;20465;-68
2023/09/20 06:10:17;;;;;;;1.10;1.10;;;24.10;45.20;;;;;;4985075;28;20491;-68
2023/09/20 06:12:42;;;;;;;2.17;1.60;;;24.20;44.50;;;;;;4980311;28;20231;-67
2023/09/20 06:15:08;;;;;;;1.40;1.30;;;24.10;44.50;;;;;;4985448;28;20464;-67
2023/09/20 06:17:36;;;;;;;2.43;1.50;;;24.10;44.50;;;;;;4981095;28;20273;-66
2023/09/20 06:20:07;;;;;;;1.40;1.30;;;24.20;44.50;;;;;;4982360;28;20487;-64
2023/09/20 06:22:33;;;;;;;1.57;1.20;;;24.20;44.50;;;;;;4988799;28;20472;-63
2023/09/20 06:24:58;;;;;;;2.20;1.40;;;24.10;44.40;;;;;;4983834;28;20989;-63
2023/09/20 06:27:30;;;;;;;2.37;1.17;;;24.20;44.50;;;;;;4985191;28;20231;-64
2023/09/20 06:29:57;;;;;;;1.40;1.30;;;24.10;44.40;;;;;;4984300;28;20274;-66
2023/09/20 06:32:22;;;;;;;1.43;1.30;;;24.20;44.50;;;;;;4986196;28;20469;-64
2023/09/20 06:34:48;;;;;;;1.33;1.23;;;24.10;44.40;;;;;;4985223;28;20468;-68
2023/09/20 06:37:14;;;;;;;1.30;1.20;;;24.10;44.50;;;;;;4983439;28;20227;-63
2023/09/20 06:39:41;;;;;;;1.50;1.40;;;24.20;44.50;;;;;;4986045;28;20238;-65
2023/09/20 06:42:07;;;;;;;1.10;1.00;;;24.20;44.50;;;;;;4981709;28;20223;-65
2023/09/20 06:44:38;;;;;;;2.13;1.30;;;24.10;44.50;;;;;;4983941;28;20503;-66
2023/09/20 06:47:05;;;;;;;1.23;1.13;;;24.10;44.50;;;;;;4984528;28;20499;-67
2023/09/20 06:49:31;;;;;;;1.40;1.20;;;24.20;44.50;;;;;;4986152;28;20495;-67
2023/09/20 06:52:01;;;;;;;1.20;1.10;;;24.10;44.50;;;;;;4985599;28;20457;-64
2023/09/20 06:54:28;;;;;;;1.47;1.37;;;24.10;44.40;;;;;;4985315;28;20468;-63
2023/09/20 06:56:53;;;;;;;2.47;1.27;;;24.10;44.40;;;;;;4979605;28;20556;-66
2023/09/20 06:59:19;;;;;;;1.60;1.50;;;24.10;44.50;;;;;;4986689;28;20494;-63
2023/09/20 07:01:44;;;;;;;1.50;1.40;;;24.10;44.40;;;;;;4986645;28;20227;-69
2023/09/20 07:04:10;;;;;;;1.43;1.33;;;24.10;44.40;;;;;;4990155;28;20322;-65
2023/09/20 07:06:37;;;;;;;1.40;1.30;;;24.20;44.50;;;;;;4986712;28;20219;-65
2023/09/20 07:09:05;;;;;;;1.37;1.27;;;24.20;44.40;;;;;;4992850;28;21041;-65
2023/09/20 07:11:31;;;;;;;5.67;1.50;;;24.20;44.50;;;;;;4990961;28;21142;-64
2023/09/20 07:13:59;;;;;;;1.27;1.17;;;24.20;44.40;;;;;;4990364;28;20491;-64
2023/09/20 07:16:25;;;;;;;2.20;1.30;;;24.10;44.40;;;;;;4990473;28;21084;-68
2023/09/20 07:18:51;;;;;;;6.23;1.50;;;24.20;44.50;;;;;;4988749;28;20571;-63
2023/09/20 07:21:16;;;;;;;1.40;1.30;;;24.10;44.40;;;;;;4991173;28;20235;-64
2023/09/20 07:23:42;;;;;;;3.30;1.50;;;24.10;44.40;;;;;;4989529;28;20468;-66
2023/09/20 07:26:08;;;;;;;1.50;1.40;;;24.20;44.50;;;;;;4986520;28;20720;-64
2023/09/20 07:28:36;;;;;;;1.50;1.40;;;24.20;44.50;;;;;;4969776;28;20220;-64
2023/09/20 07:31:03;;;;;;;1.90;1.20;;;24.20;44.50;;;;;;4984651;28;20469;-67
2023/09/20 07:33:31;;;;;;;1.40;1.30;;;24.10;44.40;;;;;;4991306;28;20670;-63
2023/09/20 07:36:00;;;;;;;1.70;1.60;;;24.20;44.50;;;;;;4993296;28;21444;-66
2023/09/20 07:38:28;;;;;;;1.30;1.20;;;24.20;44.50;;;;;;4993663;28;20472;-65
2023/09/20 07:41:17;;;;;;;1.50;1.40;;;24.20;44.50;;;;;;4989629;28;20480;-63
2023/09/20 07:43:47;;;;;;;2.17;1.93;;;24.10;44.40;;;;;;4994347;28;20468;-64
2023/09/20 07:46:15;;;;;;;1.53;1.43;;;24.20;44.50;;;;;;4992940;28;20891;-64
2023/09/20 07:48:50;;;;;;;2.40;1.43;;;24.10;44.40;;;;;;4992490;28;20456;-67
2023/09/20 07:51:28;;;;;;;1.20;1.10;;;24.10;44.40;;;;;;4987986;28;20479;-64
2023/09/20 07:53:54;;;;;;;1.40;1.30;;;24.10;44.40;;;;;;4989181;28;20982;-66
2023/09/20 07:56:20;;;;;;;1.40;1.30;;;24.20;44.50;;;;;;4986267;28;21430;-65
2023/09/20 07:58:47;;;;;;;1.93;1.27;;;24.10;44.30;;;;;;4990061;28;20536;-64
2023/09/20 08:01:17;;;;;;;1.50;1.40;;;24.20;44.50;;;;;;4994454;28;20231;-65
2023/09/20 08:03:50;;;;;;;1.70;1.40;;;24.20;44.50;;;;;;4993213;28;20456;-63
2023/09/20 08:06:35;;;;;;;1.30;1.20;;;24.20;44.50;;;;;;4992288;28;20457;-65
2023/09/20 08:09:02;;;;;;;1.40;1.30;;;24.10;44.30;;;;;;4974175;28;21444;-67
2023/09/20 08:11:28;;;;;;;1.20;1.10;;;24.20;44.40;;;;;;4987075;28;20809;-68
2023/09/20 08:13:56;;;;;;;1.70;1.60;;;24.10;44.40;;;;;;4984981;28;20464;-64
2023/09/20 08:16:23;;;;;;;2.00;1.20;;;24.20;44.40;;;;;;4987637;28;20460;-66
2023/09/20 08:21:34;;;;;;;1.87;1.60;;;24.20;44.50;;;;;;4989901;28;20503;-67
2023/09/20 09:00:27;;;;;;;1.20;1.10;;;24.10;45.00;;;;;;4988436;28;20579;-68
2023/09/20 09:03:00;;;;;;;1.40;1.30;;;24.10;45.10;;;;;;4990323;28;20713;-69
2023/09/20 09:05:27;;;;;;;1.40;1.30;;;24.20;45.30;;;;;;4988623;28;20472;-68
2023/09/20 09:07:54;;;;;;;1.40;1.30;;;24.20;45.30;;;;;;4989205;28;20506;-68
2023/09/20 09:10:20;;;;;;;1.03;1.03;;;24.20;45.50;;;;;;4986281;28;20575;-68
2023/09/20 09:12:46;;;;;;;1.43;1.23;;;24.20;45.50;;;;;;4979295;28;20465;-66
2023/09/20 09:15:12;;;;;;;1.33;1.23;;;24.10;45.60;;;;;;4990260;28;20234;-64
2023/09/20 09:17:39;;;;;;;1.20;1.10;;;24.10;45.60;;;;;;4985961;28;20484;-62
2023/09/20 09:20:07;;;;;;;1.20;1.10;;;24.20;45.60;;;;;;4977861;28;21253;-67
2023/09/20 09:22:36;;;;;;;1.50;1.40;;;24.20;45.70;;;;;;4988325;28;20465;-63
2023/09/20 09:25:07;;;;;;;1.30;1.20;;;24.20;45.70;;;;;;4988444;28;20468;-67
2023/09/20 09:27:34;;;;;;;1.27;1.17;;;24.10;45.70;;;;;;4984103;28;20477;-65
2023/09/20 09:30:01;;;;;;;3.33;1.10;;;24.20;45.70;;;;;;4988562;28;21018;-63
2023/09/20 09:32:35;;;;;;;1.30;1.20;;;24.20;45.70;;;;;;4978940;28;20477;-66
2023/09/20 09:35:05;;;;;;;1.60;1.50;;;24.20;45.70;;;;;;4987918;28;20520;-67
2023/09/20 09:37:32;;;;;;;1.30;1.20;;;24.20;45.70;;;;;;4978321;28;20959;-67
2023/09/20 09:40:02;;;;;;;1.20;1.10;;;24.20;45.60;;;;;;4983283;28;20527;-63
2023/09/20 09:42:28;;;;;;;1.33;1.23;;;24.20;45.60;;;;;;4988139;28;20559;-64
2023/09/20 09:44:55;;;;;;;1.30;1.20;;;24.20;45.60;;;;;;4990089;28;21002;-63
2023/09/20 09:47:24;;;;;;;1.20;1.10;;;24.20;45.60;;;;;;4991931;28;20223;-66
2023/09/20 09:49:52;;;;;;;1.33;1.23;;;24.20;45.60;;;;;;4976592;28;20555;-67
2023/09/20 09:52:20;;;;;;;1.30;1.20;;;24.20;45.70;;;;;;4982335;28;20472;-65
2023/09/20 09:54:47;;;;;;;1.30;1.20;;;24.20;45.60;;;;;;4987702;28;20512;-66
2023/09/20 09:57:12;;;;;;;1.20;1.10;;;24.20;45.60;;;;;;4987257;28;20500;-65
2023/09/20 09:59:39;;;;;;;1.20;1.10;;;24.20;45.60;;;;;;4987814;28;20563;-66
2023/09/20 10:02:18;;;;;;;1.47;1.37;;;24.20;45.70;;;;;;4988812;28;20317;-67
2023/09/20 10:04:56;;;;;;;1.00;1.00;;;24.20;45.70;;;;;;4989081;28;20496;-65
2023/09/20 10:07:27;;;;;;;1.30;1.20;;;24.20;46.50;;;;;;4986023;28;20469;-67
2023/09/20 10:10:02;;;;;;;1.10;1.00;;;24.20;45.80;;;;;;4988855;28;20473;-64
2023/09/20 10:12:31;;;;;;;1.30;1.20;;;24.20;45.80;;;;;;4980285;28;20526;-64
2023/09/20 10:14:59;;;;;;;1.57;1.47;;;24.20;45.90;;;;;;4986117;28;21135;-65
2023/09/20 10:17:30;;;;;;;1.20;1.10;;;24.20;46.00;;;;;;4979188;28;20481;-67
2023/09/20 10:19:56;;;;;;;1.33;1.23;;;24.20;46.00;;;;;;4989635;28;20568;-67
2023/09/20 10:22:25;;;;;;;1.10;1.00;;;24.20;46.10;;;;;;4982440;28;20458;-67
2023/09/20 10:24:58;;;;;;;1.10;1.00;;;24.20;46.10;;;;;;4968293;28;20548;-63
2023/09/20 10:27:28;;;;;;;1.40;1.20;;;24.20;46.10;;;;;;4972992;28;20477;-65
2023/09/20 10:30:12;;;;;;;1.17;1.07;;;24.20;46.10;;;;;;4989472;28;20973;-64
2023/09/20 10:32:38;;;;;;;1.27;1.17;;;24.20;46.20;;;;;;4989808;28;21581;-64
2023/09/20 10:35:32;;;;;;;1.07;1.07;;;24.20;46.20;;;;;;4990439;28;20468;-64
2023/09/20 10:38:11;;;;;;;1.20;1.10;;;24.20;46.20;;;;;;4990473;28;20465;-68
2023/09/20 10:40:50;;;;;;;1.10;0.90;;;24.20;46.20;;;;;;4981380;28;21163;-65
2023/09/20 10:43:25;;;;;;;1.10;1.00;;;24.20;46.30;;;;;;4982401;28;20614;-67
2023/09/20 10:45:51;;;;;;;1.20;1.10;;;24.20;46.30;;;;;;4980832;28;20484;-64
2023/09/20 10:48:50;;;;;;;1.00;0.90;;;24.20;46.30;;;;;;4989829;28;20460;-63
2023/09/20 10:51:42;;;;;;;1.10;1.00;;;24.20;46.30;;;;;;4985653;28;20544;-64
2023/09/20 10:54:19;;;;;;;1.63;1.00;;;24.20;46.30;;;;;;4987937;28;20551;-68
2023/09/20 10:56:51;;;;;;;1.27;1.10;;;24.20;46.30;;;;;;4984822;28;21145;-68
2023/09/20 10:59:17;;;;;;;1.13;1.00;;;24.20;46.30;;;;;;4979288;28;20552;-65
2023/09/20 11:01:50;;;;;;;1.07;0.83;;;24.20;46.30;;;;;;4984979;28;20530;-68
2023/09/20 11:04:15;;;;;;;1.53;0.97;;;24.20;46.20;;;;;;4978893;28;20587;-67
2023/09/20 11:06:49;;;;;;;1.10;1.00;;;24.20;46.10;;;;;;4983965;28;20458;-68
2023/09/20 11:09:15;;;;;;;1.33;0.97;;;24.20;46.00;;;;;;4981858;28;20280;-66
2023/09/20 11:11:43;;;;;;;2.00;1.27;;;24.20;45.80;;;;;;4980486;28;20483;-67
2023/09/20 11:14:12;;;;;;;7.43;1.20;;;24.20;45.80;;;;;;4982164;28;20420;-64
2023/09/20 11:16:41;;;;;;;1.17;1.07;;;24.20;45.70;;;;;;4976396;28;20486;-67
2023/09/20 11:19:09;;;;;;;1.10;1.00;;;24.20;45.70;;;;;;4974684;28;20470;-67
2023/09/20 11:21:34;;;;;;;2.03;1.20;;;24.20;45.70;;;;;;4976166;28;20523;-65
2023/09/20 11:24:00;;;;;;;3.17;1.40;;;24.20;45.80;;;;;;4984561;28;20977;-67
2023/09/20 11:26:29;;;;;;;1.20;1.10;;;24.30;45.90;;;;;;4979014;28;20227;-67
2023/09/20 11:28:56;;;;;;;1.30;1.20;;;24.30;45.80;;;;;;4975928;28;20226;-65
2023/09/20 11:31:30;;;;;;;1.50;1.40;;;24.30;45.80;;;;;;4982775;28;20459;-67
2023/09/20 11:34:00;;;;;;;1.50;1.40;;;24.30;45.70;;;;;;4982769;28;20569;-67
2023/09/20 11:36:26;;;;;;;1.47;1.20;;;24.30;45.80;;;;;;4971219;28;20566;-67
2023/09/20 11:38:53;;;;;;;1.20;1.10;;;24.40;45.90;;;;;;4966464;28;20497;-65
2023/09/20 11:41:23;;;;;;;1.90;1.50;;;24.40;45.80;;;;;;4966276;28;21504;-65
2023/09/20 11:43:56;;;;;;;1.30;1.20;;;24.40;45.80;;;;;;4970852;28;20471;-67
2023/09/20 11:46:25;;;;;;;1.23;1.13;;;24.50;45.90;;;;;;4979367;28;20555;-67
2023/09/20 11:48:51;;;;;;;2.33;1.00;;;24.50;45.90;;;;;;4980198;28;21601;-64
2023/09/20 11:51:17;;;;;;;1.73;1.53;;;24.50;45.80;;;;;;4967729;28;20480;-64
2023/09/20 11:53:44;;;;;;;1.43;1.17;;;24.50;45.80;;;;;;4969273;28;20749;-67
2023/09/20 11:56:10;;;;;;;1.27;1.17;;;24.50;45.90;;;;;;4981622;28;20313;-69
2023/09/20 11:58:37;;;;;;;1.80;1.20;;;24.50;45.80;;;;;;4978898;28;20668;-66
2023/09/20 12:01:08;;;;;;;1.30;1.20;;;24.50;45.80;;;;;;4980879;28;20293;-65
2023/09/20 12:03:34;;;;;;;1.10;1.00;;;24.50;45.80;;;;;;4979571;28;20456;-63
2023/09/20 12:05:59;;;;;;;1.47;1.20;;;24.60;45.90;;;;;;4972627;28;20472;-66
2023/09/20 12:08:32;;;;;;;0.80;0.80;;;24.60;45.90;;;;;;4971395;28;20231;-65
2023/09/20 12:10:58;;;;;;;0.90;0.90;;;24.60;45.90;;;;;;4977781;28;20253;-65
2023/09/20 12:13:24;;;;;;;1.10;1.00;;;24.60;45.90;;;;;;4979983;28;20868;-67
2023/09/20 12:15:51;;;;;;;1.30;0.97;;;24.60;45.90;;;;;;4979098;28;20227;-67
2023/09/20 12:18:16;;;;;;;1.17;1.07;;;24.60;45.80;;;;;;4977169;28;21212;-66
2023/09/20 12:20:42;;;;;;;0.90;0.90;;;24.60;45.80;;;;;;4977421;28;21880;-64
2023/09/20 12:23:07;;;;;;;1.83;1.07;;;24.60;45.80;;;;;;4978748;28;20228;-67
2023/09/20 12:25:33;;;;;;;1.10;1.00;;;24.60;45.80;;;;;;4970942;28;20235;-67
2023/09/20 12:27:59;;;;;;;1.40;1.30;;;24.50;45.60;;;;;;4974415;28;20247;-67
2023/09/20 12:30:27;;;;;;;1.20;1.10;;;24.50;45.60;;;;;;4979678;28;20245;-65
2023/09/20 12:32:53;;;;;;;3.83;1.10;;;24.60;45.70;;;;;;4981263;28;20472;-64
2023/09/20 12:35:19;;;;;;;1.87;1.00;;;24.50;45.60;;;;;;4982575;28;20468;-66
2023/09/20 12:37:44;;;;;;;1.20;1.10;;;24.50;45.50;;;;;;4982343;28;20948;-64
2023/09/20 12:40:10;;;;;;;1.30;1.20;;;24.50;45.40;;;;;;4981986;28;20258;-67
2023/09/20 12:42:37;;;;;;;1.90;1.80;;;24.50;45.40;;;;;;4981053;28;20274;-67
2023/09/20 12:45:07;;;;;;;1.40;1.00;;;24.50;45.30;;;;;;4975034;28;20230;-66
2023/09/20 12:47:39;;;;;;;4.03;1.10;;;24.50;45.20;;;;;;4967351;28;20496;-64
2023/09/20 12:50:07;;;;;;;2.97;1.30;;;24.50;45.20;;;;;;4962027;28;20508;-66
2023/09/20 12:52:33;;;;;;;1.23;1.10;;;24.50;45.20;;;;;;4963936;28;20496;-64
2023/09/20 12:54:59;;;;;;;2.20;1.00;;;24.50;45.10;;;;;;4964193;28;20489;-64
2023/09/20 12:57:25;;;;;;;1.10;1.00;;;24.50;45.00;;;;;;4963872;28;20660;-64
2023/09/20 12:59:51;;;;;;;1.43;1.00;;;24.50;45.00;;;;;;4982113;28;20801;-64
2023/09/20 13:02:17;;;;;;;1.30;1.20;;;24.50;45.00;;;;;;4985754;28;20277;-65
2023/09/20 13:04:42;;;;;;;1.30;1.20;;;24.50;44.90;;;;;;4983786;28;20469;-66
2023/09/20 13:07:08;;;;;;;2.70;1.30;;;24.50;44.80;;;;;;4983978;28;20223;-63
2023/09/20 13:09:34;;;;;;;1.00;1.00;;;24.50;44.80;;;;;;4984169;28;20643;-64
2023/09/20 13:12:01;;;;;;;1.30;1.20;;;24.40;44.70;;;;;;4985537;28;20305;-64
2023/09/20 13:14:30;;;;;;;2.33;1.30;;;24.50;44.70;;;;;;4975380;28;20466;-65
2023/09/20 13:16:56;;;;;;;1.87;1.20;;;24.40;44.70;;;;;;4981964;28;20484;-66
2023/09/20 13:19:21;;;;;;;1.20;1.10;;;24.50;44.70;;;;;;4982553;28;21048;-69
2023/09/20 13:21:47;;;;;;;1.93;1.73;;;24.50;44.60;;;;;;4983469;28;20234;-64
2023/09/20 13:24:12;;;;;;;1.20;1.10;;;24.40;44.50;;;;;;4980570;28;20888;-64
2023/09/20 13:26:39;;;;;;;1.30;1.20;;;24.40;44.50;;;;;;4984414;28;20214;-64
2023/09/20 13:29:05;;;;;;;1.50;1.40;;;24.40;44.50;;;;;;4992001;28;20229;-63
2023/09/20 13:31:31;;;;;;;1.20;1.10;;;24.40;44.50;;;;;;4989102;28;20469;-64